createdAt,value
2023-05-08T00:00:08.099Z,17.35
2023-05-08T00:05:09.548Z,17.43
2023-05-08T00:10:11.919Z,17.48
2023-05-08T00:15:13.459Z,17.50
2023-05-08T00:20:15.162Z,17.51
2023-05-08T00:25:16.671Z,17.22
2023-05-08T00:30:18.227Z,17.36
2023-05-08T00:35:19.728Z,17.19
2023-05-08T00:40:21.111Z,17.04
2023-05-08T00:45:22.580Z,16.93
2023-05-08T00:50:23.953Z,17.03
2023-05-08T00:55:25.413Z,17.00
2023-05-08T01:00:26.938Z,17.19
2023-05-08T01:05:28.385Z,17.00
2023-05-08T01:10:37.296Z,16.78
2023-05-08T01:15:43.491Z,16.99
2023-05-08T01:21:11.627Z,16.95
2023-05-08T01:26:31.615Z,17.04
2023-05-08T01:31:52.230Z,16.93
2023-05-08T01:36:58.301Z,16.87
2023-05-08T01:42:02.748Z,16.80
2023-05-08T01:47:06.837Z,16.79
2023-05-08T01:52:18.667Z,16.85
2023-05-08T01:57:21.395Z,16.96
2023-05-08T02:02:23.029Z,16.88
2023-05-08T02:07:25.775Z,16.81
2023-05-08T02:12:28.486Z,16.84
2023-05-08T02:17:30.763Z,16.48
2023-05-08T02:22:32.711Z,16.96
2023-05-08T02:27:34.686Z,16.99
2023-05-08T02:32:36.492Z,16.88
2023-05-08T02:37:38.234Z,17.00
2023-05-08T02:42:40.618Z,16.85
2023-05-08T02:47:47.462Z,16.99
2023-05-08T02:52:51.036Z,16.94
2023-05-08T02:58:17.880Z,16.69
2023-05-08T03:03:28.075Z,16.56
2023-05-08T03:08:31.066Z,16.53
2023-05-08T03:13:34.662Z,16.46
2023-05-08T03:18:41.317Z,16.41
2023-05-08T03:23:43.292Z,16.39
2023-05-08T03:28:46.480Z,16.45
2023-05-08T03:33:48.889Z,16.49
2023-05-08T03:38:50.373Z,16.50
2023-05-08T03:43:52.307Z,16.41
2023-05-08T03:48:55.073Z,16.21
2023-05-08T03:53:57.094Z,16.36
2023-05-08T03:59:05.730Z,16.18
2023-05-08T04:04:17.731Z,16.20
2023-05-08T04:09:20.289Z,16.23
2023-05-08T04:14:24.394Z,16.02
2023-05-08T04:19:28.788Z,15.91
2023-05-08T04:24:32.712Z,15.93
2023-05-08T04:29:34.912Z,15.95
2023-05-08T04:34:37.577Z,16.09
2023-05-08T04:39:40.957Z,15.98
2023-05-08T04:44:43.440Z,15.80
2023-05-08T04:49:45.966Z,16.01
2023-05-08T04:54:47.594Z,15.76
2023-05-08T04:59:49.107Z,15.76
2023-05-08T05:04:51.182Z,15.82
2023-05-08T05:09:52.818Z,15.82
2023-05-08T05:14:54.910Z,15.70
2023-05-08T05:19:57.451Z,15.81
2023-05-08T05:24:58.975Z,15.78
2023-05-08T05:30:00.770Z,15.89
2023-05-08T05:35:02.358Z,16.04
2023-05-08T05:40:04.246Z,15.97
2023-05-08T05:45:07.819Z,15.81
2023-05-08T05:50:10.459Z,16.12
2023-05-08T05:55:12.887Z,16.31
2023-05-08T06:00:15.273Z,16.46
2023-05-08T06:05:20.059Z,16.61
2023-05-08T06:10:21.623Z,16.68
2023-05-08T06:15:23.487Z,16.72
2023-05-08T06:20:26.389Z,16.94
2023-05-08T06:25:28.153Z,17.01
2023-05-08T06:30:29.669Z,16.93
2023-05-08T06:35:31.233Z,17.02
2023-05-08T06:40:32.652Z,16.96
2023-05-08T06:45:34.084Z,17.24
2023-05-08T06:50:37.864Z,17.45
2023-05-08T06:55:42.224Z,17.36
2023-05-08T07:00:43.578Z,17.30
2023-05-08T07:05:44.996Z,17.14
2023-05-08T07:10:46.348Z,17.25
2023-05-08T07:15:47.904Z,17.58
2023-05-08T07:20:49.250Z,17.49
2023-05-08T07:25:50.646Z,17.46
2023-05-08T07:30:52.031Z,17.40
2023-05-08T07:35:53.665Z,17.55
2023-05-08T07:40:57.512Z,17.66
2023-05-08T07:45:59.034Z,17.73
2023-05-08T07:51:00.406Z,17.83
2023-05-08T07:56:01.802Z,17.85
2023-05-08T08:01:03.423Z,17.95
2023-05-08T08:06:04.794Z,18.10
2023-05-08T08:11:06.975Z,18.20
2023-05-08T08:16:08.458Z,18.35
2023-05-08T08:21:09.837Z,18.60
2023-05-08T08:26:11.265Z,18.67
2023-05-08T08:31:12.697Z,18.72
2023-05-08T08:36:14.718Z,18.98
2023-05-08T08:41:16.286Z,18.93
2023-05-08T08:46:20.101Z,18.96
2023-05-08T08:51:28.317Z,19.06
2023-05-08T08:56:30.662Z,19.08
2023-05-08T09:01:34.266Z,19.07
2023-05-08T09:06:36.533Z,19.51
2023-05-08T09:11:38.671Z,19.71
2023-05-08T09:16:40.168Z,19.62
2023-05-08T09:21:41.707Z,20.02
2023-05-08T09:26:43.142Z,20.19
2023-05-08T09:31:45.751Z,20.06
2023-05-08T09:36:47.211Z,20.16
2023-05-08T09:42:01.138Z,20.33
2023-05-08T09:47:12.613Z,20.47
2023-05-08T09:52:15.578Z,20.28
2023-05-08T09:57:16.966Z,20.47
2023-05-08T10:02:20.183Z,19.98
2023-05-08T10:07:34.900Z,20.31
2023-05-08T10:12:37.851Z,20.25
2023-05-08T10:17:53.717Z,20.56
2023-05-08T10:22:56.718Z,20.71
2023-05-08T10:28:07.367Z,20.95
2023-05-08T10:33:10.299Z,21.09
2023-05-08T10:38:12.199Z,20.90
2023-05-08T10:43:14.442Z,21.57
2023-05-08T10:48:22.218Z,21.13
2023-05-08T10:53:42.210Z,21.54
2023-05-08T10:58:43.712Z,21.65
2023-05-08T11:03:46.654Z,21.58
2023-05-08T11:08:49.462Z,21.79
2023-05-08T11:13:53.718Z,22.17
2023-05-08T11:19:14.032Z,22.18
2023-05-08T11:24:15.919Z,22.09
2023-05-08T11:29:17.683Z,21.71
2023-05-08T11:34:38.083Z,21.88
2023-05-08T11:39:39.629Z,21.84
2023-05-08T11:44:41.083Z,22.32
2023-05-08T11:49:42.786Z,22.33
2023-05-08T11:54:44.199Z,22.40
2023-05-08T11:59:49.556Z,22.24
2023-05-08T12:04:50.897Z,22.51
2023-05-08T12:09:52.386Z,22.12
2023-05-08T12:14:53.838Z,22.40
2023-05-08T12:19:56.403Z,22.14
2023-05-08T12:24:57.807Z,22.01
2023-05-08T12:29:59.202Z,21.74
2023-05-08T12:35:00.701Z,22.00
2023-05-08T12:40:02.731Z,21.92
2023-05-08T12:45:04.297Z,21.43
2023-05-08T12:50:05.972Z,21.53
2023-05-08T12:55:20.115Z,21.55
2023-05-08T13:00:21.563Z,21.30
2023-05-08T13:05:23.352Z,21.19
2023-05-08T13:10:26.082Z,21.06
2023-05-08T13:15:28.913Z,21.34
2023-05-08T13:20:30.280Z,21.52
2023-05-08T13:25:32.132Z,21.46
2023-05-08T13:30:33.879Z,21.36
2023-05-08T13:35:35.567Z,21.50
2023-05-08T13:40:36.992Z,21.74
2023-05-08T13:45:38.481Z,21.75
2023-05-08T13:50:39.897Z,21.37
2023-05-08T13:55:42.185Z,21.29
2023-05-08T14:00:43.543Z,21.07
2023-05-08T14:05:44.881Z,21.14
2023-05-08T14:10:46.353Z,21.09
2023-05-08T14:15:47.816Z,21.14
2023-05-08T14:20:56.953Z,20.91
2023-05-08T14:25:58.983Z,21.01
2023-05-08T14:31:00.511Z,20.97
2023-05-08T14:36:01.866Z,20.88
2023-05-08T14:41:04.576Z,21.04
2023-05-08T14:46:06.443Z,21.10
2023-05-08T14:51:07.986Z,21.23
2023-05-08T14:56:09.547Z,21.38
2023-05-08T15:01:11.142Z,21.35
2023-05-08T15:06:12.556Z,21.68
2023-05-08T15:11:14.150Z,21.44
2023-05-08T15:16:15.539Z,21.27
2023-05-08T15:21:16.913Z,21.20
2023-05-08T15:26:18.374Z,21.34
2023-05-08T15:31:19.787Z,21.26
2023-05-08T15:36:21.238Z,21.00
2023-05-08T15:41:22.600Z,21.02
2023-05-08T15:46:23.977Z,21.02
2023-05-08T15:51:25.401Z,21.07
2023-05-08T15:56:26.909Z,21.20
2023-05-08T16:01:28.318Z,21.24
2023-05-08T16:06:29.734Z,21.37
2023-05-08T16:11:31.938Z,21.47
2023-05-08T16:16:33.348Z,21.21
2023-05-08T16:21:34.733Z,21.08
2023-05-08T16:26:36.078Z,21.04
2023-05-08T16:31:37.472Z,20.92
2023-05-08T16:36:38.890Z,20.98
2023-05-08T16:41:40.315Z,21.01
2023-05-08T16:46:41.819Z,20.92
2023-05-08T16:51:43.224Z,20.78
2023-05-08T16:56:44.603Z,20.57
2023-05-08T17:01:45.976Z,20.57
2023-05-08T17:06:47.337Z,20.80
2023-05-08T17:11:48.679Z,20.74
2023-05-08T17:16:50.111Z,20.84
2023-05-08T17:21:51.526Z,20.67
2023-05-08T17:26:53.047Z,20.61
2023-05-08T17:31:54.472Z,20.56
2023-05-08T17:36:55.838Z,20.51
2023-05-08T17:41:57.226Z,20.59
2023-05-08T17:46:58.649Z,20.55
2023-05-08T17:51:59.978Z,20.58
2023-05-08T17:57:01.617Z,20.58
2023-05-08T18:02:03.066Z,20.18
2023-05-08T18:07:04.529Z,20.24
2023-05-08T18:12:06.076Z,20.14
2023-05-08T18:17:07.794Z,20.19
2023-05-08T18:22:09.203Z,20.35
2023-05-08T18:27:10.554Z,20.15
2023-05-08T18:32:11.972Z,20.16
2023-05-08T18:37:13.320Z,20.19
2023-05-08T18:42:14.677Z,20.24
2023-05-08T18:47:16.215Z,20.12
2023-05-08T18:52:17.587Z,20.08
2023-05-08T18:57:18.946Z,19.79
2023-05-08T19:02:20.618Z,19.63
2023-05-08T19:07:22.048Z,19.62
2023-05-08T19:12:23.393Z,19.62
2023-05-08T19:17:24.850Z,19.69
2023-05-08T19:22:26.183Z,19.72
2023-05-08T19:27:28.977Z,19.61
2023-05-08T19:32:30.441Z,19.43
2023-05-08T19:37:31.930Z,19.18
2023-05-08T19:42:33.512Z,19.16
2023-05-08T19:47:35.086Z,19.19
2023-05-08T19:52:36.502Z,18.94
2023-05-08T19:57:37.877Z,18.99
2023-05-08T20:02:39.562Z,18.82
2023-05-08T20:07:41.056Z,18.96
2023-05-08T20:12:43.719Z,18.91
2023-05-08T20:17:45.262Z,18.74
2023-05-08T20:22:46.642Z,18.93
2023-05-08T20:27:48.091Z,18.82
2023-05-08T20:32:49.552Z,18.81
2023-05-08T20:37:50.957Z,18.85
2023-05-08T20:42:52.323Z,18.67
2023-05-08T20:47:53.728Z,18.59
2023-05-08T20:52:55.104Z,18.50
2023-05-08T20:57:56.490Z,18.41
2023-05-08T21:02:57.938Z,18.43
2023-05-08T21:08:02.093Z,18.39
2023-05-08T21:13:03.713Z,18.51
2023-05-08T21:18:05.928Z,18.64
2023-05-08T21:23:07.307Z,18.45
2023-05-08T21:28:12.128Z,18.63
2023-05-08T21:33:14.006Z,18.49
2023-05-08T21:38:15.537Z,18.42
2023-05-08T21:43:16.924Z,18.22
2023-05-08T21:48:18.410Z,18.29
2023-05-08T21:53:19.761Z,18.21
2023-05-08T21:58:21.142Z,18.36
2023-05-08T22:03:22.691Z,18.12
2023-05-08T22:08:24.156Z,18.09
2023-05-08T22:13:25.811Z,18.25
2023-05-08T22:18:27.357Z,17.95
2023-05-08T22:23:28.875Z,18.18
2023-05-08T22:28:30.412Z,18.19
2023-05-08T22:33:33.844Z,18.31
2023-05-08T22:38:35.204Z,18.19
2023-05-08T22:43:37.053Z,18.20
2023-05-08T22:48:38.495Z,18.22
2023-05-08T22:53:39.875Z,17.96
2023-05-08T22:58:41.289Z,18.19
2023-05-08T23:03:42.716Z,18.11
2023-05-08T23:08:44.085Z,17.74
2023-05-08T23:13:45.508Z,17.89
2023-05-08T23:18:47.005Z,17.80
2023-05-08T23:23:48.419Z,17.75
2023-05-08T23:28:52.265Z,17.99
2023-05-08T23:33:53.840Z,17.90
2023-05-08T23:38:55.283Z,17.85
2023-05-08T23:43:56.957Z,17.97
2023-05-08T23:48:58.362Z,17.95
2023-05-08T23:53:59.701Z,17.69
2023-05-08T23:59:01.233Z,17.84
